CNVO2: Blue River near Connerville, OK

                                SHEF ID:       CNVO2     Blue River near Connerville, OK
STATION TYPE:

PRECIP STAGE RIV-FLOW BAT-LOAD
in ft cfs volt
Ccp-Rev Ccp-Rev Ccp-Rev Ccp-Rev
(America/Chicago)
04/26 00:00 0.00 6.10 171 12.43
04/26 01:00 0.01 6.42 306 12.41
04/26 02:00 0.00 6.74 469 12.40
04/26 03:00 0.00 6.85 532 12.37
04/26 04:00 0.00 6.77 486 12.36
04/26 05:00 0.03 6.67 431 12.35
04/26 06:00 0.01 6.55 369 12.33
04/26 07:00 0.00 6.44 315 12.30
04/26 08:00 0.00 6.35 274 12.54
04/26 09:00 0.00 6.30 252 13.17
04/26 10:00 0.00 6.36 278 13.30
04/26 11:00 0.00 6.88 549 13.07
04/26 12:00 0.00 6.87 543 12.99
04/26 13:00 0.00 6.79 497 12.96
04/26 14:00 0.00 6.71 453 12.94
04/26 15:00 0.00 6.63 410 12.98
04/26 16:00 0.00 6.55 369 12.93
04/26 17:00 0.00 6.48 335 12.91
04/26 18:00 0.00 6.42 306 12.90
04/26 19:00 0.00 6.37 283 12.72
04/26 20:00 0.00 6.32 260 12.63
04/26 21:00 0.00 6.28 243 12.51
04/26 22:00 0.00 6.23 222 12.48
04/26 23:00 ---- ---- ---- ----
Data processed at Mon 27Apr2026 04:01 GMT

NOTICE: If you are parsing this page

Please convert to using our Data API. Starting early 2026 we will be migrating to: https://water.usace.army.mil with modern pages rendered in JavaScript. When this migration completes you will no longer be able to scrape this page! CWMSDataAPI (CDA)

Timeseries IDs (TSIDs)

TSIDs used from left to right in the data table
CONV.Precip-Inc.Total.1Hour.1Hour.Ccp-Rev
CONV.Stage.Inst.1Hour.0.Ccp-Rev
CONV.Flow.Inst.1Hour.0.Ccp-Rev
CONV.Volt-Battery Load.Inst.1Hour.0.Ccp-Rev

                            

All information presented herein is the property of the government of the United States of America and may be revised or deleted at any time without prior notice. Dissemination of this information without the expressed written consent of the Public Affairs Office, Tulsa District U.S. Army Corps of Engineers is strictly prohibited. These data are gathered electronically and, as presented, have NOT undergone any form of quality control. These data are NOT guaranteed to be valid or correct.